Time;durP1;ratioP1;P1;durP2;ratioP2;P2;SDS_P1;SDS_P2;PMS_P1;PMS_P2;Temp;Humidity;BMP_temperature;BMP_pressure;BME280_temperature;BME280_humidity;BME280_pressure;Samples;Min_cycle;Max_cycle;Signal;HPM_P1;HPM_P2
2023/02/27 00:01:32;;;;;;;;;4.50;1.25;;;;;4.83;60.54;102153.78;5035648;28;45320;-76
2023/02/27 00:03:59;;;;;;;;;3.50;3.50;;;;;4.82;60.11;102145.03;5018629;28;45446;-76
2023/02/27 00:06:25;;;;;;;;;4.00;1.00;;;;;4.78;60.31;102150.00;4998711;28;45484;-79
2023/02/27 00:08:50;;;;;;;;;2.00;2.00;;;;;4.71;60.31;102152.28;5029478;28;45603;-79
2023/02/27 00:11:15;;;;;;;;;4.00;2.00;;;;;4.70;60.85;102150.50;5017923;28;49702;-77
2023/02/27 00:13:41;;;;;;;;;4.25;2.00;;;;;4.68;60.85;102159.94;5017125;28;48490;-77
2023/02/27 00:16:06;;;;;;;;;4.00;2.00;;;;;4.65;60.75;102149.34;5001473;28;45672;-77
2023/02/27 00:18:32;;;;;;;;;2.50;1.75;;;;;4.62;60.98;102151.75;5017891;28;45724;-77
2023/02/27 00:20:57;;;;;;;;;7.00;1.25;;;;;4.59;61.05;102159.47;5016857;28;52592;-77
2023/02/27 00:23:23;;;;;;;;;1.75;1.00;;;;;4.55;61.32;102152.25;5036108;28;45417;-77
2023/02/27 00:25:48;;;;;;;;;5.00;4.00;;;;;4.54;61.40;102160.91;5004401;28;45491;-76
2023/02/27 00:28:14;;;;;;;;;4.50;2.00;;;;;4.53;61.56;102156.50;5021657;28;46251;-76
2023/02/27 00:30:40;;;;;;;;;4.00;1.00;;;;;4.54;61.63;102157.41;5020297;28;45490;-79
2023/02/27 00:33:06;;;;;;;;;2.00;2.00;;;;;4.54;61.86;102149.56;5021239;28;45544;-78
2023/02/27 00:35:31;;;;;;;;;1.75;0.00;;;;;4.53;61.83;102152.97;5021693;28;45527;-80
2023/02/27 00:37:57;;;;;;;;;3.50;2.00;;;;;4.52;62.30;102146.81;5003679;28;64259;-78
2023/02/27 00:40:24;;;;;;;;;2.00;2.00;;;;;4.46;61.96;102150.00;5039232;28;53400;-78
2023/02/27 00:42:50;;;;;;;;;1.75;1.00;;;;;4.47;62.45;102143.06;5020653;28;45652;-77
2023/02/27 00:45:15;;;;;;;;;4.25;4.00;;;;;4.41;61.98;102148.84;5021643;28;45331;-77
2023/02/27 00:47:41;;;;;;;;;4.00;1.50;;;;;4.42;62.38;102158.50;5018636;28;47569;-76
2023/02/27 00:50:07;;;;;;;;;2.50;2.50;;;;;4.39;62.52;102171.41;5021417;28;45219;-78
2023/02/27 00:52:33;;;;;;;;;1.25;1.25;;;;;4.36;62.27;102165.06;5032399;28;46596;-76
2023/02/27 00:54:59;;;;;;;;;2.50;2.50;;;;;4.39;62.96;102179.25;5020735;28;45711;-76
2023/02/27 00:57:25;;;;;;;;;4.00;2.00;;;;;4.40;63.01;102161.84;5010421;28;45838;-77
2023/02/27 00:59:50;;;;;;;;;4.00;2.00;;;;;4.40;63.07;102169.69;5037331;28;55872;-79
2023/02/27 01:02:15;;;;;;;;;4.00;2.00;;;;;4.39;62.86;102165.28;5033614;28;52489;-77
2023/02/27 01:04:41;;;;;;;;;3.00;3.00;;;;;4.39;62.93;102171.41;5004766;28;46611;-77
2023/02/27 01:07:07;;;;;;;;;3.00;3.00;;;;;4.36;62.88;102168.59;5020662;28;46312;-78
2023/02/27 01:09:32;;;;;;;;;2.00;2.00;;;;;4.34;63.08;102165.00;5021213;28;45270;-78
2023/02/27 01:11:58;;;;;;;;;4.50;2.00;;;;;4.34;63.46;102165.00;5005296;28;45479;-77
2023/02/27 01:14:24;;;;;;;;;2.00;2.00;;;;;4.33;63.38;102165.81;5025748;28;45668;-79
2023/02/27 01:16:50;;;;;;;;;1.75;1.75;;;;;4.33;64.08;102157.06;5020665;28;47832;-77
2023/02/27 01:19:15;;;;;;;;;6.50;2.00;;;;;4.33;63.95;102172.75;5017716;28;45593;-79
2023/02/27 01:21:40;;;;;;;;;4.00;1.50;;;;;4.32;63.57;102173.59;5010959;28;48650;-79
2023/02/27 01:24:07;;;;;;;;;2.00;2.00;;;;;4.32;64.09;102168.34;5038491;28;45334;-77
2023/02/27 01:26:32;;;;;;;;;2.00;2.00;;;;;4.29;64.33;102166.44;5037843;28;46411;-77
2023/02/27 01:28:57;;;;;;;;;3.00;1.50;;;;;4.28;64.09;102161.13;5019349;28;58668;-76
2023/02/27 01:31:23;;;;;;;;;4.00;4.00;;;;;4.30;64.15;102160.41;5031162;28;51916;-77
2023/02/27 01:33:48;;;;;;;;;3.25;1.00;;;;;4.26;64.51;102157.50;5003630;28;48469;-79
2023/02/27 01:36:13;;;;;;;;;7.00;2.00;;;;;4.28;64.38;102156.81;5036713;28;57045;-76
2023/02/27 01:38:39;;;;;;;;;7.50;2.00;;;;;4.23;64.78;102158.25;5038291;28;53538;-77
2023/02/27 01:41:06;;;;;;;;;3.25;2.00;;;;;4.26;64.61;102160.13;5019795;28;45460;-77
2023/02/27 01:43:32;;;;;;;;;1.50;1.50;;;;;4.23;64.93;102157.34;5000913;28;45549;-76
2023/02/27 01:45:59;;;;;;;;;3.00;3.00;;;;;4.22;65.12;102161.69;4998583;28;48615;-77
2023/02/27 01:48:27;;;;;;;;;4.00;2.00;;;;;4.23;65.30;102157.34;5000800;28;45311;-77
2023/02/27 01:51:12;;;;;;;;;10.50;4.50;;;;;4.22;65.16;102153.84;5031555;28;45373;-76
2023/02/27 01:53:39;;;;;;;;;2.00;2.00;;;;;4.19;65.16;102146.72;5020586;28;45612;-77
2023/02/27 01:56:09;;;;;;;;;4.00;2.00;;;;;4.17;65.65;102144.84;5019551;28;45952;-76
2023/02/27 01:58:34;;;;;;;;;2.00;2.00;;;;;4.13;65.65;102146.34;5003447;28;45946;-77
2023/02/27 02:01:00;;;;;;;;;4.50;2.00;;;;;4.12;65.42;102148.91;4996033;28;45415;-77
2023/02/27 02:03:32;;;;;;;;;3.00;1.75;;;;;4.07;65.79;102137.28;5019334;28;46557;-76
2023/02/27 02:05:59;;;;;;;;;4.00;4.00;;;;;4.04;65.62;102134.47;5020070;28;47789;-78
2023/02/27 02:08:27;;;;;;;;;4.00;4.00;;;;;4.06;65.70;102140.69;5017971;28;45373;-75
2023/02/27 02:10:54;;;;;;;;;2.00;2.00;;;;;4.08;66.29;102145.19;5019879;28;45307;-80
2023/02/27 02:13:20;;;;;;;;;5.00;2.50;;;;;4.05;65.94;102136.25;5037479;28;54532;-77
2023/02/27 02:16:09;;;;;;;;;2.00;1.75;;;;;4.04;65.67;102124.00;5002783;28;47439;-77
2023/02/27 02:18:44;;;;;;;;;2.00;2.00;;;;;4.03;65.86;102125.72;5023912;28;45494;-78
2023/02/27 02:21:33;;;;;;;;;1.75;1.00;;;;;4.03;66.14;102120.50;5037123;28;45420;-80
2023/02/27 02:24:20;;;;;;;;;4.75;1.50;;;;;4.04;65.80;102116.16;5037362;28;45219;-77
2023/02/27 02:27:24;;;;;;;;;2.00;2.00;;;;;4.04;65.64;102108.34;5019237;28;46382;-77
2023/02/27 02:30:42;;;;;;;;;2.00;2.00;;;;;4.05;65.97;102110.13;5034574;28;45233;-80
2023/02/27 02:33:16;;;;;;;;;2.00;2.00;;;;;4.06;66.12;102111.94;4961126;28;45601;-79
2023/02/27 02:36:04;;;;;;;;;2.50;2.00;;;;;4.04;66.26;102111.84;5024870;28;45507;-79
2023/02/27 02:38:50;;;;;;;;;3.50;2.00;;;;;4.04;65.77;102119.69;5036765;28;45880;-76
2023/02/27 02:41:42;;;;;;;;;4.00;1.50;;;;;4.05;65.67;102120.56;5041186;28;45294;-76
2023/02/27 02:44:24;;;;;;;;;3.50;2.00;;;;;3.99;65.98;102115.91;5022495;28;45339;-76
2023/02/27 02:47:04;;;;;;;;;1.00;1.00;;;;;3.99;65.86;102115.91;5034588;28;45301;-76
2023/02/27 02:49:35;;;;;;;;;4.75;1.50;;;;;3.99;66.22;102112.38;5017633;28;46545;-77
2023/02/27 02:52:07;;;;;;;;;3.00;2.00;;;;;3.97;66.35;102114.91;5013932;28;45574;-77
2023/02/27 02:54:44;;;;;;;;;0.25;0.25;;;;;3.97;66.16;102120.16;5016995;28;45370;-79
2023/02/27 02:57:16;;;;;;;;;4.00;2.00;;;;;3.96;66.18;102110.50;5015624;28;47041;-77
2023/02/27 02:59:52;;;;;;;;;4.00;1.50;;;;;3.96;66.27;102113.13;5000946;28;48167;-77
2023/02/27 03:02:22;;;;;;;;;3.25;1.00;;;;;3.94;66.00;102117.34;5017350;28;45497;-77
2023/02/27 03:05:04;;;;;;;;;1.75;1.75;;;;;3.92;65.95;102109.41;5017728;28;45638;-77
2023/02/27 03:07:37;;;;;;;;;1.00;1.00;;;;;3.92;66.30;102113.75;5019578;28;45546;-77
2023/02/27 03:10:16;;;;;;;;;4.00;1.75;;;;;3.90;66.19;102104.94;5014711;28;48596;-78
2023/02/27 03:12:45;;;;;;;;;2.00;2.00;;;;;3.88;66.13;102106.53;5018289;28;45457;-78
2023/02/27 03:15:16;;;;;;;;;7.00;2.00;;;;;3.90;66.13;102111.06;5015802;28;45553;-78
2023/02/27 03:17:46;;;;;;;;;6.00;3.00;;;;;3.90;66.39;102102.31;5019138;28;45423;-77
2023/02/27 03:20:19;;;;;;;;;1.25;1.25;;;;;3.90;66.23;102111.06;5003165;28;48357;-77
2023/02/27 03:22:47;;;;;;;;;6.25;2.00;;;;;3.88;66.23;102117.88;5015008;28;45397;-77
2023/02/27 03:25:14;;;;;;;;;2.00;2.00;;;;;3.89;65.99;102108.38;5012923;28;45469;-77
2023/02/27 03:27:46;;;;;;;;;2.00;2.00;;;;;3.89;66.33;102116.19;5007434;28;45272;-77
2023/02/27 03:30:25;;;;;;;;;2.50;2.00;;;;;3.87;66.33;102126.53;5017705;28;45472;-77
2023/02/27 03:33:00;;;;;;;;;4.00;1.75;;;;;3.85;66.49;102111.59;5015645;28;45285;-77
2023/02/27 03:35:31;;;;;;;;;4.75;4.00;;;;;3.83;66.44;102105.38;5018389;28;45246;-78
2023/02/27 03:38:09;;;;;;;;;7.00;4.00;;;;;3.86;66.38;102118.63;5036834;28;45537;-79
2023/02/27 03:40:38;;;;;;;;;2.00;2.00;;;;;3.81;66.53;102104.38;5017768;28;48635;-76
2023/02/27 03:43:10;;;;;;;;;4.00;2.00;;;;;3.87;66.62;102130.88;4996869;28;45430;-78
2023/02/27 03:45:44;;;;;;;;;3.50;2.00;;;;;3.83;66.35;102121.03;5032870;28;45512;-76
2023/02/27 03:48:10;;;;;;;;;2.00;1.00;;;;;3.83;66.43;102113.19;5014664;28;45302;-77
2023/02/27 03:50:36;;;;;;;;;5.00;1.25;;;;;3.79;66.61;102114.75;5017621;28;59814;-78
2023/02/27 03:53:05;;;;;;;;;2.00;2.00;;;;;3.79;66.53;102127.81;5018374;28;45511;-76
2023/02/27 03:55:38;;;;;;;;;4.00;1.25;;;;;3.79;66.87;102129.53;5018240;28;45375;-76
2023/02/27 03:58:04;;;;;;;;;4.50;2.00;;;;;3.79;66.66;102127.81;4999981;28;45354;-77
2023/02/27 04:00:30;;;;;;;;;4.00;2.00;;;;;3.80;67.00;102131.34;5018002;28;48752;-76
2023/02/27 04:02:58;;;;;;;;;4.00;2.00;;;;;3.80;66.91;102141.78;5016484;28;45430;-77
2023/02/27 04:05:24;;;;;;;;;2.00;2.00;;;;;3.82;66.54;102143.66;5017862;28;45557;-77
2023/02/27 04:08:01;;;;;;;;;4.00;4.00;;;;;3.82;66.82;102142.75;5015477;28;45528;-77
2023/02/27 04:10:32;;;;;;;;;1.00;1.00;;;;;3.82;66.89;102145.38;5035521;28;46679;-77
2023/02/27 04:13:00;;;;;;;;;2.00;2.00;;;;;3.81;66.65;102144.47;5035678;28;45315;-77
2023/02/27 04:15:45;;;;;;;;;2.75;1.00;;;;;3.79;66.74;102143.50;5035646;28;45651;-77
2023/02/27 04:18:48;;;;;;;;;3.00;1.75;;;;;3.78;66.77;102141.69;5036089;28;45228;-77
2023/02/27 04:21:46;;;;;;;;;3.00;1.00;;;;;3.76;66.75;102142.41;5033734;28;45760;-76
2023/02/27 04:24:48;;;;;;;;;4.00;2.00;;;;;3.76;67.16;102148.53;5029909;28;46128;-77
2023/02/27 04:27:19;;;;;;;;;1.00;1.00;;;;;3.75;67.07;102151.06;5023385;28;45322;-77
2023/02/27 04:30:12;;;;;;;;;2.00;2.00;;;;;3.74;67.28;102149.25;5017308;28;45500;-79
2023/02/27 04:32:43;;;;;;;;;3.50;2.00;;;;;3.73;67.29;102150.03;4992218;28;47743;-76
2023/02/27 04:35:14;;;;;;;;;2.00;2.00;;;;;3.71;67.28;102147.34;5026209;28;45327;-78
2023/02/27 04:37:48;;;;;;;;;1.00;1.00;;;;;3.71;67.20;102149.06;4997838;28;45351;-79
2023/02/27 04:40:42;;;;;;;;;4.00;2.00;;;;;3.72;67.25;102162.19;4998292;28;45467;-75
2023/02/27 04:43:10;;;;;;;;;0.75;0.50;;;;;3.70;67.46;102156.00;5030020;28;47603;-79
2023/02/27 04:45:40;;;;;;;;;2.00;2.00;;;;;3.70;67.74;102160.31;5016068;28;56663;-76
2023/02/27 04:48:11;;;;;;;;;1.25;1.25;;;;;3.67;67.58;102158.41;5018314;28;45494;-77
2023/02/27 04:50:41;;;;;;;;;3.50;1.00;;;;;3.64;68.13;102153.91;5015325;28;45176;-80
2023/02/27 04:53:15;;;;;;;;;4.00;1.75;;;;;3.69;68.02;102175.09;5017296;28;46762;-77
2023/02/27 04:55:46;;;;;;;;;4.00;1.50;;;;;3.68;68.25;102168.97;5017443;28;45593;-79
2023/02/27 04:58:17;;;;;;;;;4.00;4.00;;;;;3.67;68.29;102176.69;4998708;28;45309;-76
2023/02/27 05:00:47;;;;;;;;;2.00;2.00;;;;;3.63;68.42;102173.03;5035654;28;45533;-78
2023/02/27 05:03:25;;;;;;;;;1.75;1.75;;;;;3.65;68.32;102181.84;5000082;28;47747;-77
2023/02/27 05:05:54;;;;;;;;;2.00;2.00;;;;;3.64;68.36;102179.13;5017398;28;45331;-78
2023/02/27 05:08:25;;;;;;;;;4.00;4.00;;;;;3.62;68.72;102186.88;5017340;28;45493;-78
2023/02/27 05:11:07;;;;;;;;;5.50;2.00;;;;;3.52;68.80;102174.09;5036130;28;45545;-77
2023/02/27 05:13:39;;;;;;;;;1.00;1.00;;;;;3.60;68.99;102188.50;5003396;28;48274;-79
2023/02/27 05:16:18;;;;;;;;;1.25;1.25;;;;;3.62;69.40;102191.19;5018225;28;45340;-78
2023/02/27 05:18:44;;;;;;;;;3.00;1.25;;;;;3.60;69.20;102184.97;5022391;28;45571;-76
2023/02/27 05:21:09;;;;;;;;;2.00;2.00;;;;;3.60;69.51;102190.19;5000828;28;45633;-78
2023/02/27 05:23:56;;;;;;;;;2.00;2.00;;;;;3.57;69.15;102187.38;5035078;28;45440;-79
2023/02/27 05:26:30;;;;;;;;;1.00;1.00;;;;;3.55;69.65;102200.38;5020429;28;46298;-80
2023/02/27 05:29:09;;;;;;;;;3.00;2.00;;;;;3.52;69.78;102200.19;5038038;28;45437;-76
2023/02/27 05:31:52;;;;;;;;;5.00;2.00;;;;;3.51;70.22;102203.59;5020612;28;45302;-78
2023/02/27 05:34:24;;;;;;;;;6.50;1.50;;;;;3.49;70.67;102193.88;5020616;28;46010;-77
2023/02/27 05:36:57;;;;;;;;;7.00;2.00;;;;;3.50;70.54;102191.34;5029291;28;45242;-77
2023/02/27 05:39:26;;;;;;;;;2.00;2.00;;;;;3.49;70.62;102205.22;5013999;28;45352;-80
2023/02/27 05:41:59;;;;;;;;;3.25;2.50;;;;;3.48;70.97;102208.63;5030986;28;45553;-77
2023/02/27 05:44:29;;;;;;;;;4.00;1.25;;;;;3.40;70.80;102197.69;5022933;28;45683;-77
2023/02/27 05:46:58;;;;;;;;;2.00;2.00;;;;;3.44;70.87;102201.41;5005346;28;45451;-76
2023/02/27 05:49:32;;;;;;;;;7.00;2.50;;;;;3.43;70.96;102204.84;5019702;28;45409;-77
2023/02/27 05:52:00;;;;;;;;;2.50;2.00;;;;;3.42;71.40;102200.44;5038591;28;45266;-77
2023/02/27 05:54:41;;;;;;;;;4.00;1.50;;;;;3.41;71.41;102209.06;5019257;28;47506;-77
2023/02/27 05:57:10;;;;;;;;;2.00;2.00;;;;;3.40;71.54;102194.19;5020678;28;45327;-79
2023/02/27 05:59:44;;;;;;;;;7.00;4.75;;;;;3.42;71.89;102203.03;5037555;28;45306;-76
2023/02/27 06:02:10;;;;;;;;;4.75;1.75;;;;;3.43;71.78;102210.06;5016927;28;45520;-76
2023/02/27 06:04:37;;;;;;;;;2.00;1.50;;;;;3.44;71.89;102217.09;4999885;28;47621;-76
2023/02/27 06:07:03;;;;;;;;;7.75;2.00;;;;;3.39;71.75;102206.34;5019990;28;45434;-76
2023/02/27 06:09:30;;;;;;;;;2.00;0.25;;;;;3.40;71.86;102212.47;5021945;28;45570;-76
2023/02/27 06:11:56;;;;;;;;;3.50;3.50;;;;;3.37;72.10;102215.81;5019404;28;45741;-77
2023/02/27 06:14:21;;;;;;;;;2.00;2.00;;;;;3.37;72.08;102217.53;5138458;22;45960;-76
2023/02/27 06:16:46;;;;;;;;;7.25;4.00;;;;;3.38;72.32;102217.59;5019494;28;51341;-75
2023/02/27 06:19:12;;;;;;;;;2.50;2.50;;;;;3.37;72.28;102210.59;5036799;28;45298;-77
2023/02/27 06:21:37;;;;;;;;;1.75;1.75;;;;;3.34;72.55;102212.09;5018180;28;47426;-75
2023/02/27 06:24:03;;;;;;;;;8.25;3.50;;;;;3.37;73.01;102214.91;5037311;28;45721;-77
2023/02/27 06:26:28;;;;;;;;;4.25;4.25;;;;;3.38;72.76;102221.94;5019267;28;45481;-76
2023/02/27 06:28:54;;;;;;;;;4.00;4.00;;;;;3.37;72.79;102214.91;5014573;28;45499;-77
2023/02/27 06:31:19;;;;;;;;;2.00;2.00;;;;;3.38;73.26;102224.53;5019220;28;45518;-75
2023/02/27 06:33:45;;;;;;;;;6.50;4.00;;;;;3.38;72.84;102222.81;5015888;28;46248;-76
2023/02/27 06:36:10;;;;;;;;;4.75;2.50;;;;;3.39;72.95;102219.41;5019768;28;46073;-75
2023/02/27 06:38:36;;;;;;;;;4.50;4.50;;;;;3.39;72.89;102235.06;5026217;28;52801;-78
2023/02/27 06:41:03;;;;;;;;;2.00;2.00;;;;;3.41;72.81;102230.88;5006863;28;45462;-76
2023/02/27 06:43:29;;;;;;;;;4.00;4.00;;;;;3.40;73.36;102243.78;5021315;28;46835;-75
2023/02/27 06:45:55;;;;;;;;;4.25;2.00;;;;;3.38;73.32;102233.28;5013998;28;45664;-74
2023/02/27 06:48:20;;;;;;;;;3.00;3.00;;;;;3.36;73.21;102237.50;5015127;28;45559;-75
2023/02/27 06:50:53;;;;;;;;;5.00;3.50;;;;;3.39;73.20;102242.91;5031271;28;45205;-77
2023/02/27 06:53:18;;;;;;;;;5.00;3.50;;;;;3.37;73.23;102244.53;5001103;28;47687;-79
2023/02/27 06:55:43;;;;;;;;;7.00;4.75;;;;;3.36;72.78;102245.34;5017151;28;45485;-75
2023/02/27 06:58:09;;;;;;;;;1.00;1.00;;;;;3.34;72.61;102240.81;5009190;28;45373;-76
2023/02/27 07:00:35;;;;;;;;;6.25;2.00;;;;;3.34;72.93;102252.16;5035675;28;45410;-75
2023/02/27 07:03:03;;;;;;;;;4.50;2.00;;;;;3.35;73.17;102242.59;5015054;28;54200;-79
2023/02/27 07:05:29;;;;;;;;;1.25;1.25;;;;;3.39;73.05;102255.06;5041280;28;45500;-76
2023/02/27 07:07:54;;;;;;;;;4.25;2.00;;;;;3.38;73.21;102253.25;5023065;28;45578;-76
2023/02/27 07:10:19;;;;;;;;;1.00;1.00;;;;;3.40;73.36;102256.84;5023411;28;45453;-75
2023/02/27 07:12:45;;;;;;;;;7.00;2.00;;;;;3.38;73.49;102253.25;5034636;28;47007;-77
2023/02/27 07:15:10;;;;;;;;;3.00;2.00;;;;;3.39;72.94;102257.66;5033580;28;47240;-79
2023/02/27 07:17:36;;;;;;;;;2.75;2.00;;;;;3.42;72.86;102265.69;5023583;28;45521;-74
2023/02/27 07:20:03;;;;;;;;;4.75;3.00;;;;;3.42;73.05;102263.09;5015327;28;46828;-74
2023/02/27 07:22:28;;;;;;;;;3.25;2.00;;;;;3.47;72.67;102269.50;5017745;28;47598;-74
2023/02/27 07:24:54;;;;;;;;;1.75;1.75;;;;;3.50;72.61;102272.28;5027683;28;45476;-74
2023/02/27 07:27:19;;;;;;;;;2.00;1.00;;;;;3.50;72.47;102272.28;5018543;28;49850;-74
2023/02/27 07:29:45;;;;;;;;;1.00;1.00;;;;;3.49;72.45;102274.81;5029113;28;48567;-74
2023/02/27 07:32:10;;;;;;;;;3.50;3.50;;;;;3.52;72.82;102282.84;5028879;28;45826;-75
2023/02/27 07:34:36;;;;;;;;;6.25;4.00;;;;;3.54;73.02;102282.13;5037224;28;45377;-73
2023/02/27 07:37:01;;;;;;;;;3.75;2.00;;;;;3.56;72.99;102285.72;5017086;28;47055;-74
2023/02/27 07:39:26;;;;;;;;;3.50;1.25;;;;;3.57;72.85;102274.50;5038549;28;46551;-75
2023/02/27 07:41:52;;;;;;;;;4.00;2.00;;;;;3.58;72.76;102270.19;5035824;28;60103;-74
2023/02/27 07:44:17;;;;;;;;;4.00;3.50;;;;;3.62;72.71;102279.97;5034500;28;45552;-74
2023/02/27 07:46:43;;;;;;;;;2.00;2.00;;;;;3.61;72.50;102270.34;5035213;28;45853;-74
2023/02/27 07:49:09;;;;;;;;;7.00;1.75;;;;;3.63;72.27;102277.50;5011227;28;45458;-74
2023/02/27 07:51:34;;;;;;;;;2.00;2.00;;;;;3.67;72.52;102291.63;5012121;28;46136;-76
2023/02/27 07:53:59;;;;;;;;;4.50;1.00;;;;;3.70;71.49;102286.59;4986121;28;57574;-77
2023/02/27 07:56:26;;;;;;;;;3.75;2.00;;;;;3.72;72.01;102294.53;5033955;28;49674;-77
2023/02/27 07:58:52;;;;;;;;;6.50;1.50;;;;;3.75;72.03;102285.19;5013083;28;45550;-77
2023/02/27 08:01:17;;;;;;;;;4.25;1.75;;;;;3.74;71.91;102286.00;5013426;28;45829;-79
2023/02/27 08:03:42;;;;;;;;;5.00;2.50;;;;;3.82;71.69;102291.66;5010240;28;55458;-77
2023/02/27 08:06:08;;;;;;;;;2.00;2.00;;;;;3.86;71.74;102302.41;5018032;28;50789;-78
2023/02/27 08:08:34;;;;;;;;;1.00;1.00;;;;;3.87;71.75;102298.97;5031663;28;45381;-77
2023/02/27 08:10:59;;;;;;;;;4.00;2.00;;;;;3.93;71.15;102303.69;5027810;28;45658;-77
2023/02/27 08:13:25;;;;;;;;;3.50;3.50;;;;;3.96;71.62;102308.22;5034081;28;45437;-78
2023/02/27 08:15:50;;;;;;;;;1.50;1.25;;;;;3.97;71.77;102308.28;5016918;28;45542;-79
2023/02/27 08:18:15;;;;;;;;;4.00;4.00;;;;;4.02;71.70;102305.97;5036255;28;45472;-77
2023/02/27 08:20:41;;;;;;;;;2.00;2.00;;;;;4.05;71.41;102299.22;4997055;28;55778;-76
2023/02/27 08:23:08;;;;;;;;;5.00;2.00;;;;;4.09;70.99;102289.84;5018242;28;45409;-77
2023/02/27 08:25:33;;;;;;;;;3.25;2.50;;;;;4.12;71.15;102293.56;5018270;28;45430;-77
2023/02/27 08:27:59;;;;;;;;;1.75;1.75;;;;;4.15;70.34;102296.34;5034717;28;47146;-77
2023/02/27 08:30:24;;;;;;;;;1.25;1.25;;;;;4.14;70.69;102288.41;5012778;28;51134;-77
2023/02/27 08:32:49;;;;;;;;;1.50;1.50;;;;;4.14;70.40;102294.53;5035724;28;45437;-76
2023/02/27 08:35:15;;;;;;;;;7.00;2.00;;;;;4.19;70.38;102286.97;5018294;28;45404;-79
2023/02/27 08:37:40;;;;;;;;;9.00;3.00;;;;;4.21;70.61;102295.84;5035908;28;46576;-77
2023/02/27 08:40:07;;;;;;;;;7.25;2.00;;;;;4.25;70.25;102291.66;5017684;28;51762;-79
2023/02/27 08:42:33;;;;;;;;;5.50;2.50;;;;;4.29;70.07;102291.03;5018481;28;45466;-79
2023/02/27 08:44:58;;;;;;;;;2.00;1.00;;;;;4.34;70.05;102281.75;5002658;28;51007;-77
2023/02/27 08:47:24;;;;;;;;;2.00;2.00;;;;;4.37;69.63;102295.94;5023810;28;45505;-77
2023/02/27 08:49:49;;;;;;;;;2.50;2.50;;;;;4.43;68.71;102303.25;5021177;28;45691;-76
2023/02/27 08:52:14;;;;;;;;;3.50;1.25;;;;;4.42;68.50;102284.03;5021194;28;55545;-77
2023/02/27 08:54:40;;;;;;;;;2.00;2.00;;;;;4.48;69.03;102309.66;5021150;28;45418;-79
2023/02/27 08:57:05;;;;;;;;;3.50;3.50;;;;;4.49;68.49;102302.69;5038742;28;45452;-76
2023/02/27 08:59:31;;;;;;;;;8.50;4.50;;;;;4.53;68.30;102294.19;5037949;28;45708;-77
2023/02/27 09:01:56;;;;;;;;;1.75;1.75;;;;;4.57;68.46;102315.41;5022161;28;45294;-79
2023/02/27 09:04:22;;;;;;;;;10.25;4.00;;;;;4.61;68.25;102314.78;5039402;28;45240;-77
2023/02/27 09:06:47;;;;;;;;;4.00;1.75;;;;;4.64;68.22;102303.59;5038471;28;45506;-79
2023/02/27 09:09:12;;;;;;;;;5.00;2.00;;;;;4.64;68.27;102298.38;5035165;28;57090;-77
2023/02/27 09:11:38;;;;;;;;;4.50;4.00;;;;;4.67;68.38;102302.03;5017844;28;45453;-77
2023/02/27 09:14:04;;;;;;;;;6.75;5.25;;;;;4.76;68.12;102313.88;5021448;28;45627;-77
2023/02/27 09:16:29;;;;;;;;;1.25;1.25;;;;;4.79;68.21;102311.41;5038048;28;45539;-79
2023/02/27 09:18:55;;;;;;;;;4.00;3.50;;;;;4.85;68.10;102312.69;5020823;28;60487;-77
2023/02/27 09:21:22;;;;;;;;;2.00;2.00;;;;;4.89;67.71;102312.03;5020488;28;45378;-79
2023/02/27 09:23:47;;;;;;;;;5.00;4.00;;;;;4.92;67.26;102300.88;5021450;28;45427;-77
2023/02/27 09:26:13;;;;;;;;;2.00;2.00;;;;;4.99;67.39;102322.22;5039210;28;45302;-77
2023/02/27 09:28:38;;;;;;;;;5.50;2.00;;;;;5.05;67.46;102319.06;5020778;28;45590;-78
2023/02/27 09:31:06;;;;;;;;;6.00;2.00;;;;;5.10;65.91;102316.72;5028691;28;45366;-77
2023/02/27 09:33:32;;;;;;;;;4.00;4.00;;;;;5.15;66.72;102316.16;5020955;28;45221;-76
2023/02/27 09:35:58;;;;;;;;;1.75;1.75;;;;;5.20;66.41;102319.94;5037847;28;45513;-80
2023/02/27 09:38:23;;;;;;;;;1.25;1.25;;;;;5.24;66.03;102311.44;5037294;28;45942;-77
2023/02/27 09:40:50;;;;;;;;;4.00;4.00;;;;;5.31;65.05;102317.00;5020656;28;46255;-77
2023/02/27 09:43:20;;;;;;;;;1.75;1.75;;;;;5.36;65.48;102320.78;5022783;28;45450;-78
2023/02/27 09:45:51;;;;;;;;;5.75;2.00;;;;;5.36;64.76;102305.09;5017665;28;45485;-77
2023/02/27 09:48:37;;;;;;;;;5.00;3.00;;;;;5.44;65.36;102315.19;5020300;28;45979;-77
2023/02/27 09:51:03;;;;;;;;;3.00;2.00;;;;;5.49;65.18;102311.09;4999336;28;46270;-79
2023/02/27 09:53:32;;;;;;;;;1.75;1.75;;;;;5.55;65.01;102317.50;5020725;28;45435;-77
2023/02/27 09:56:26;;;;;;;;;2.50;2.50;;;;;5.58;65.31;102315.94;5019024;28;45694;-79
2023/02/27 09:59:22;;;;;;;;;2.00;1.50;;;;;5.67;65.05;102312.91;5037812;28;45557;-77
2023/02/27 10:02:00;;;;;;;;;2.00;2.00;;;;;5.71;63.96;102321.03;5038397;28;45326;-78
2023/02/27 10:04:35;;;;;;;;;3.50;2.00;;;;;5.73;64.01;102316.75;5004024;28;45375;-78
2023/02/27 10:07:25;;;;;;;;;2.75;2.75;;;;;5.77;63.74;102310.88;5038750;28;45259;-79
2023/02/27 10:09:56;;;;;;;;;2.00;2.00;;;;;5.86;63.96;102312.19;5035894;28;46500;-76
2023/02/27 10:12:52;;;;;;;;;1.50;1.50;;;;;5.90;63.18;102317.66;5038187;28;45592;-77
2023/02/27 10:15:28;;;;;;;;;3.50;2.00;;;;;5.95;63.37;102328.44;5014033;28;45495;-77
2023/02/27 10:18:06;;;;;;;;;5.00;2.50;;;;;6.04;62.71;102323.69;5003715;28;45613;-79
2023/02/27 10:20:38;;;;;;;;;1.00;1.00;;;;;6.10;62.77;102317.88;5017067;28;46732;-79
2023/02/27 10:23:11;;;;;;;;;1.25;1.25;;;;;6.14;63.02;102310.25;5014779;28;45267;-76
2023/02/27 10:25:42;;;;;;;;;1.00;1.00;;;;;6.26;61.98;102320.47;5018224;28;46634;-77
2023/02/27 10:28:12;;;;;;;;;4.25;2.00;;;;;6.32;61.76;102307.69;5020271;28;45344;-77
2023/02/27 10:30:38;;;;;;;;;1.50;1.50;;;;;6.35;62.07;102304.34;5019597;28;46301;-80
2023/02/27 10:33:18;;;;;;;;;3.75;2.25;;;;;6.47;62.33;102315.44;5019968;28;45482;-77
2023/02/27 10:35:44;;;;;;;;;5.25;2.00;;;;;6.53;61.59;102315.75;5020443;28;45356;-77
2023/02/27 10:38:28;;;;;;;;;2.00;2.00;;;;;6.59;61.65;102308.19;5002741;28;45312;-76
2023/02/27 10:40:55;;;;;;;;;1.00;1.00;;;;;6.68;61.01;102307.78;5028284;28;48640;-77
2023/02/27 10:43:21;;;;;;;;;3.00;1.25;;;;;6.72;60.28;102296.63;5019698;28;45355;-76
2023/02/27 10:45:47;;;;;;;;;3.00;1.00;;;;;6.80;59.41;102316.25;5037885;28;45362;-77
2023/02/27 10:48:13;;;;;;;;;1.50;1.25;;;;;6.82;59.71;102305.03;5021791;28;45287;-76
2023/02/27 10:50:41;;;;;;;;;1.25;1.00;;;;;6.91;60.09;102317.69;5016159;28;46532;-76
2023/02/27 10:53:16;;;;;;;;;2.25;2.00;;;;;6.95;59.31;102311.78;5019565;28;45546;-76
2023/02/27 10:55:44;;;;;;;;;1.50;1.00;;;;;6.98;59.21;102300.53;5037729;28;45414;-77
2023/02/27 10:58:17;;;;;;;;;3.00;2.00;;;;;7.01;58.28;102306.81;5019868;28;45438;-77
2023/02/27 11:00:54;;;;;;;;;1.25;1.25;;;;;7.08;58.20;102308.00;5019513;28;46919;-76
2023/02/27 11:03:23;;;;;;;;;1.50;1.50;;;;;7.11;58.52;102307.28;5019887;28;45358;-77
2023/02/27 11:05:58;;;;;;;;;1.50;1.00;;;;;7.16;58.00;102298.78;5019774;28;45375;-78
2023/02/27 11:08:29;;;;;;;;;1.00;1.00;;;;;7.21;57.84;102291.13;5016043;28;45497;-76
2023/02/27 11:11:02;;;;;;;;;2.00;1.00;;;;;7.29;58.16;102298.53;5019382;28;45338;-79
2023/02/27 11:13:34;;;;;;;;;3.00;1.00;;;;;7.36;57.68;102294.50;5037104;28;45496;-75
2023/02/27 11:16:01;;;;;;;;;1.50;1.00;;;;;7.41;56.50;102305.22;5019682;28;45271;-78
2023/02/27 11:18:28;;;;;;;;;1.00;1.00;;;;;7.46;56.93;102302.00;5036052;28;45401;-76
2023/02/27 11:21:11;;;;;;;;;1.50;1.50;;;;;7.51;56.91;102296.91;5018999;28;45598;-75
2023/02/27 11:23:37;;;;;;;;;3.00;2.00;;;;;7.55;56.37;102285.72;5035075;28;45358;-77
2023/02/27 11:26:14;;;;;;;;;2.50;2.00;;;;;7.60;55.79;102292.09;5019320;28;45586;-77
2023/02/27 11:28:39;;;;;;;;;0.75;0.75;;;;;7.66;55.81;102286.22;5019010;28;45447;-76
2023/02/27 11:31:13;;;;;;;;;1.75;1.00;;;;;7.69;55.10;102281.13;5026229;28;56613;-76
2023/02/27 11:33:47;;;;;;;;;2.00;1.00;;;;;7.73;52.82;102290.97;5018956;28;45342;-76
2023/02/27 11:36:12;;;;;;;;;1.25;1.25;;;;;7.75;53.41;102276.13;5019097;28;45448;-79
2023/02/27 11:38:38;;;;;;;;;1.00;1.00;;;;;7.78;53.05;102273.66;5036402;28;51839;-77
2023/02/27 11:41:05;;;;;;;;;2.00;1.75;;;;;7.82;53.52;102278.22;5036840;28;46485;-79
2023/02/27 11:43:38;;;;;;;;;1.00;1.00;;;;;7.85;53.94;102268.75;5036620;28;46243;-79
2023/02/27 11:46:08;;;;;;;;;1.75;1.00;;;;;7.94;53.70;102275.25;5002722;28;45417;-76
2023/02/27 11:48:47;;;;;;;;;1.00;1.00;;;;;8.01;52.85;102275.59;5019057;28;45461;-78